Terminal Aerodrome Forecast
Issued by NWS

Home | Current Version | Previous Version | Text Only | Print | Product List | Glossary On
Versions: 1 2 3 4 5 6 7 8 9 10 11 12 13 14 15 16 17 18 19 20 21 22 23 24 25 26 27 28 29
000
FTUS44 KHGX 011720
TAFCXO
TAF
KCXO 011720Z 0118/0218 16007KT P6SM SCT040
     FM020000 16006KT P6SM SCT100
     FM020600 17004KT 4SM BR SCT002 BKN015
      TEMPO 0210/0212 1/4SM FG OVC002
     FM021500 17008KT P6SM SCT015 BKN025=

USA.gov is the U.S. government's official web portal to all federal, state and local government web resources and services.